createdAt,value
2022-10-05T00:01:46.190Z,1.77
2022-10-05T00:04:54.852Z,1.25
2022-10-05T00:08:12.995Z,3.90
2022-10-05T00:11:18.703Z,1.77
2022-10-05T00:14:36.219Z,4.88
2022-10-05T00:17:42.537Z,1.05
2022-10-05T00:20:49.011Z,1.42
2022-10-05T00:23:55.756Z,2.45
2022-10-05T00:27:03.062Z,3.15
2022-10-05T00:30:22.522Z,1.58
2022-10-05T00:33:28.490Z,2.30
2022-10-05T00:36:33.217Z,1.73
2022-10-05T00:39:41.623Z,1.15
2022-10-05T00:43:05.821Z,0.77
2022-10-05T00:46:19.753Z,3.00
2022-10-05T00:49:51.639Z,2.35
2022-10-05T00:53:18.554Z,2.05
2022-10-05T00:56:53.218Z,1.65
2022-10-05T01:00:20.545Z,2.50
2022-10-05T01:03:54.798Z,1.85
2022-10-05T01:07:25.759Z,1.23
2022-10-05T01:10:43.610Z,2.80
2022-10-05T01:13:58.912Z,1.40
2022-10-05T01:17:17.990Z,1.53
2022-10-05T01:20:40.391Z,0.75
2022-10-05T01:24:21.938Z,1.00
2022-10-05T01:27:34.504Z,1.02
2022-10-05T01:31:01.735Z,2.65
2022-10-05T01:34:18.172Z,4.93
2022-10-05T01:38:02.768Z,0.80
2022-10-05T01:41:07.078Z,3.75
2022-10-05T01:44:19.328Z,0.73
2022-10-05T01:47:57.073Z,0.45
2022-10-05T01:51:28.991Z,4.80
2022-10-05T01:54:55.542Z,6.60
2022-10-05T02:01:42.638Z,1.63
2022-10-05T02:05:02.364Z,4.55
2022-10-05T02:08:25.162Z,1.75
2022-10-05T02:11:30.171Z,0.80
2022-10-05T02:14:43.512Z,0.55
2022-10-05T02:17:58.514Z,0.57
2022-10-05T02:21:04.267Z,0.63
2022-10-05T02:24:14.454Z,1.35
2022-10-05T02:27:27.248Z,0.57
2022-10-05T02:30:39.349Z,0.45
2022-10-05T02:33:43.797Z,0.95
2022-10-05T02:37:13.289Z,0.65
2022-10-05T02:40:55.752Z,0.25
2022-10-05T02:44:07.202Z,2.72
2022-10-05T02:47:30.568Z,0.32
2022-10-05T02:51:02.881Z,2.28
2022-10-05T02:54:16.224Z,0.30
2022-10-05T02:57:35.877Z,0.45
2022-10-05T03:00:49.543Z,0.75
2022-10-05T03:04:14.521Z,2.70
2022-10-05T03:07:25.910Z,1.00
2022-10-05T03:10:59.606Z,2.35
2022-10-05T03:14:42.979Z,1.08
2022-10-05T03:18:19.965Z,12.48
2022-10-05T03:24:35.561Z,1.92
2022-10-05T03:27:55.670Z,1.38
2022-10-05T03:31:13.499Z,0.38
2022-10-05T03:34:39.409Z,1.98
2022-10-05T03:37:58.500Z,2.47
2022-10-05T03:41:10.074Z,1.13
2022-10-05T03:44:36.541Z,0.43
2022-10-05T03:47:55.669Z,0.85
2022-10-05T03:51:15.076Z,5.18
2022-10-05T03:54:34.324Z,4.90
2022-10-05T03:57:41.541Z,0.90
2022-10-05T04:00:51.624Z,2.42
2022-10-05T04:04:05.014Z,0.50
2022-10-05T04:07:24.148Z,0.50
2022-10-05T04:10:35.405Z,1.48
2022-10-05T04:13:59.651Z,2.83
2022-10-05T04:17:33.384Z,0.50
2022-10-05T04:20:52.974Z,0.50
2022-10-05T04:24:56.872Z,0.55
2022-10-05T04:28:17.405Z,2.40
2022-10-05T04:31:46.597Z,0.40
2022-10-05T04:35:17.794Z,1.15
2022-10-05T04:38:40.975Z,0.63
2022-10-05T04:42:03.783Z,1.88
2022-10-05T04:45:30.910Z,1.08
2022-10-05T04:49:13.863Z,0.93
2022-10-05T04:52:56.229Z,0.40
2022-10-05T04:56:36.540Z,0.98
2022-10-05T04:59:56.275Z,1.00
2022-10-05T05:03:22.752Z,0.50
2022-10-05T05:06:36.690Z,0.43
2022-10-05T05:09:58.755Z,3.10
2022-10-05T05:13:18.478Z,1.25
2022-10-05T05:16:34.934Z,2.42
2022-10-05T05:19:47.199Z,0.40
2022-10-05T05:23:08.454Z,0.52
2022-10-05T05:26:39.115Z,0.50
2022-10-05T05:30:17.013Z,0.63
2022-10-05T05:33:28.137Z,0.40
2022-10-05T05:36:47.230Z,0.68
2022-10-05T05:40:15.774Z,1.08
2022-10-05T05:43:29.009Z,0.40
2022-10-05T05:47:03.547Z,0.30
2022-10-05T05:50:41.598Z,0.77
2022-10-05T05:53:50.096Z,2.05
2022-10-05T05:57:19.497Z,0.65
2022-10-05T06:00:30.288Z,0.50
2022-10-05T06:03:46.449Z,0.52
2022-10-05T06:06:55.230Z,0.70
2022-10-05T06:10:20.602Z,2.92
2022-10-05T06:13:39.478Z,1.15
2022-10-05T06:16:51.239Z,2.38
2022-10-05T06:20:04.886Z,10.02
2022-10-05T06:23:40.180Z,10.50
2022-10-05T06:27:09.660Z,1.55
2022-10-05T06:30:17.311Z,8.68
2022-10-05T06:33:49.170Z,2.03
2022-10-05T06:37:10.922Z,3.63
2022-10-05T06:40:20.017Z,5.78
2022-10-05T06:43:43.506Z,4.25
2022-10-05T06:47:26.808Z,1.48
2022-10-05T06:51:01.831Z,2.70
2022-10-05T06:54:20.580Z,4.82
2022-10-05T06:58:06.720Z,89.07
2022-10-05T07:01:12.052Z,6.93
2022-10-05T07:04:25.547Z,5.28
2022-10-05T07:07:57.647Z,2.08
2022-10-05T07:11:03.012Z,2.55
2022-10-05T07:17:43.469Z,1.48
2022-10-05T07:20:56.841Z,2.33
2022-10-05T07:24:21.404Z,2.47
2022-10-05T07:27:31.958Z,3.35
2022-10-05T07:30:56.648Z,1.35
2022-10-05T07:34:22.935Z,2.60
2022-10-05T07:37:58.585Z,1.95
2022-10-05T07:41:17.155Z,1.02
2022-10-05T07:44:44.822Z,2.35
2022-10-05T07:47:56.544Z,8.48
2022-10-05T07:51:18.005Z,1.55
2022-10-05T07:54:25.182Z,2.17
2022-10-05T07:58:01.893Z,6.57
2022-10-05T08:01:20.570Z,2.83
2022-10-05T08:04:39.423Z,3.83
2022-10-05T08:07:47.158Z,7.78
2022-10-05T08:11:08.268Z,3.38
2022-10-05T08:14:39.808Z,5.78
2022-10-05T08:18:14.385Z,5.25
2022-10-05T08:21:24.979Z,7.15
2022-10-05T08:24:38.366Z,6.95
2022-10-05T08:28:03.940Z,3.42
2022-10-05T08:31:27.572Z,4.93
2022-10-05T08:35:05.296Z,4.85
2022-10-05T08:38:19.698Z,6.32
2022-10-05T08:42:06.763Z,6.85
2022-10-05T08:45:29.698Z,7.97
2022-10-05T08:48:48.705Z,6.20
2022-10-05T08:52:31.525Z,43.08
2022-10-05T08:56:00.802Z,41.25
2022-10-05T08:59:37.104Z,11.45
2022-10-05T09:02:53.621Z,69.07
2022-10-05T09:06:16.408Z,165.90
2022-10-05T09:09:44.481Z,172.43
2022-10-05T09:13:00.908Z,212.15
2022-10-05T09:16:33.350Z,149.88
2022-10-05T09:19:46.564Z,104.30
2022-10-05T09:22:50.942Z,11.35
2022-10-05T09:26:00.378Z,7.03
2022-10-05T09:29:48.926Z,14.70
2022-10-05T09:33:26.696Z,4.53
2022-10-05T09:36:50.804Z,2.15
2022-10-05T09:40:56.740Z,5.78
2022-10-05T09:44:37.220Z,16.60
2022-10-05T09:48:05.631Z,2.75
2022-10-05T09:51:09.937Z,2.45
2022-10-05T09:54:30.020Z,1.98
2022-10-05T09:58:03.584Z,2.42
2022-10-05T10:01:34.084Z,37.47
2022-10-05T10:05:02.576Z,4.75
2022-10-05T10:08:40.783Z,17.20
2022-10-05T10:12:06.541Z,13.48
2022-10-05T10:15:26.506Z,23.92
2022-10-05T10:19:08.117Z,37.70
2022-10-05T10:22:42.816Z,50.45
2022-10-05T10:25:53.423Z,18.55
2022-10-05T10:36:07.352Z,30.60
2022-10-05T10:39:17.718Z,13.55
2022-10-05T10:42:41.282Z,14.93
2022-10-05T10:46:20.092Z,3.47
2022-10-05T10:49:54.293Z,8.27
2022-10-05T10:53:13.608Z,4.30
2022-10-05T10:56:26.923Z,7.65
2022-10-05T10:59:52.195Z,45.38
2022-10-05T11:03:21.907Z,6.70
2022-10-05T11:07:04.545Z,2.30
2022-10-05T11:10:27.087Z,4.13
2022-10-05T11:14:03.654Z,5.38
2022-10-05T11:17:16.660Z,6.25
2022-10-05T11:20:52.984Z,14.52
2022-10-05T11:24:27.627Z,4.53
2022-10-05T11:27:55.041Z,2.20
2022-10-05T11:31:31.936Z,8.98
2022-10-05T11:35:08.529Z,19.45
2022-10-05T11:39:13.906Z,14.18
2022-10-05T11:42:51.990Z,3.65
2022-10-05T11:46:20.743Z,4.97
2022-10-05T11:49:40.815Z,1.92
2022-10-05T11:52:59.661Z,6.70
2022-10-05T11:56:25.231Z,37.83
2022-10-05T11:59:32.612Z,14.68
2022-10-05T12:02:54.154Z,44.67
2022-10-05T12:06:17.872Z,11.95
2022-10-05T12:09:38.140Z,9.43
2022-10-05T12:12:55.292Z,6.00
2022-10-05T12:16:14.290Z,7.57
2022-10-05T12:19:32.691Z,10.85
2022-10-05T12:22:46.130Z,12.80
2022-10-05T12:26:03.435Z,9.02
2022-10-05T12:29:26.624Z,16.80
2022-10-05T12:32:40.105Z,21.52
2022-10-05T12:36:18.360Z,17.98
2022-10-05T12:39:55.072Z,4.40
2022-10-05T12:43:19.627Z,5.40
2022-10-05T12:46:35.430Z,4.32
2022-10-05T12:50:04.205Z,3.42
2022-10-05T12:53:30.243Z,2.20
2022-10-05T12:56:51.803Z,10.85
2022-10-05T13:00:23.113Z,9.15
2022-10-05T13:03:38.247Z,18.63
2022-10-05T13:06:52.893Z,12.85
2022-10-05T13:10:25.551Z,17.50
2022-10-05T13:13:42.770Z,18.58
2022-10-05T13:17:00.225Z,19.20
2022-10-05T13:20:29.414Z,45.25
2022-10-05T13:23:47.787Z,74.03
2022-10-05T13:27:06.681Z,172.70
2022-10-05T13:30:17.887Z,132.63
2022-10-05T13:34:00.860Z,52.22
2022-10-05T13:37:09.268Z,29.00
2022-10-05T13:40:44.553Z,25.85
2022-10-05T13:44:15.150Z,41.17
2022-10-05T13:47:44.048Z,33.03
2022-10-05T13:51:13.572Z,35.35
2022-10-05T13:54:22.875Z,19.98
2022-10-05T13:57:58.404Z,22.77
2022-10-05T14:01:23.496Z,13.75
2022-10-05T14:04:51.785Z,11.75
2022-10-05T14:08:17.523Z,16.70
2022-10-05T14:11:27.376Z,24.90
2022-10-05T14:14:49.847Z,25.83
2022-10-05T14:17:54.362Z,26.33
2022-10-05T14:21:14.209Z,19.92
2022-10-05T14:24:44.777Z,16.23
2022-10-05T14:28:11.079Z,19.52
2022-10-05T14:31:28.116Z,21.98
2022-10-05T14:34:37.972Z,21.58
2022-10-05T14:37:59.003Z,24.38
2022-10-05T14:41:17.282Z,23.20
2022-10-05T14:44:33.785Z,26.33
2022-10-05T14:47:49.142Z,28.13
2022-10-05T14:51:05.121Z,25.40
2022-10-05T14:54:42.386Z,21.30
2022-10-05T14:58:07.002Z,26.92
2022-10-05T15:01:36.704Z,33.92
2022-10-05T15:04:50.786Z,31.92
2022-10-05T15:08:05.390Z,30.83
2022-10-05T15:11:30.598Z,37.35
2022-10-05T15:14:45.900Z,32.95
2022-10-05T15:17:56.616Z,31.83
2022-10-05T15:21:30.170Z,34.40
2022-10-05T15:25:07.435Z,30.33
2022-10-05T15:28:31.431Z,35.85
2022-10-05T15:31:49.639Z,22.73
2022-10-05T15:35:25.184Z,22.73
2022-10-05T15:38:42.484Z,32.38
2022-10-05T15:42:12.447Z,19.92
2022-10-05T15:45:30.994Z,22.48
2022-10-05T15:49:09.124Z,21.63
2022-10-05T15:52:13.566Z,43.60
2022-10-05T15:55:47.525Z,33.67
2022-10-05T15:58:58.267Z,25.63
2022-10-05T16:02:13.355Z,21.08
2022-10-05T16:05:43.804Z,15.65
2022-10-05T16:09:11.655Z,17.33
2022-10-05T16:12:22.749Z,17.48
2022-10-05T16:15:34.751Z,11.20
2022-10-05T16:19:00.535Z,13.68
2022-10-05T16:22:33.323Z,13.75
2022-10-05T16:25:59.671Z,8.60
2022-10-05T16:29:16.425Z,9.30
2022-10-05T16:32:31.083Z,7.32
2022-10-05T16:36:03.813Z,10.85
2022-10-05T16:39:23.191Z,8.13
2022-10-05T16:42:56.778Z,5.45
2022-10-05T16:46:22.271Z,7.18
2022-10-05T16:49:54.611Z,7.55
2022-10-05T16:53:05.675Z,7.15
2022-10-05T16:56:20.038Z,7.85
2022-10-05T16:59:39.716Z,33.30
2022-10-05T17:03:12.063Z,7.22
2022-10-05T17:06:49.111Z,6.97
2022-10-05T17:10:30.501Z,12.88
2022-10-05T17:14:16.833Z,11.85
2022-10-05T17:17:33.132Z,13.48
2022-10-05T17:20:44.889Z,6.45
2022-10-05T17:24:01.859Z,5.82
2022-10-05T17:27:25.185Z,7.45
2022-10-05T17:31:06.909Z,10.23
2022-10-05T17:34:37.862Z,7.50
2022-10-05T17:37:45.329Z,7.00
2022-10-05T17:41:03.874Z,4.90
2022-10-05T17:44:08.371Z,6.22
2022-10-05T17:47:14.912Z,7.10
2022-10-05T17:51:06.068Z,12.73
2022-10-05T17:54:43.715Z,17.23
2022-10-05T17:57:48.545Z,12.30
2022-10-05T18:00:59.037Z,11.60
2022-10-05T18:04:12.703Z,8.48
2022-10-05T18:07:23.352Z,10.70
2022-10-05T18:10:30.170Z,22.05
2022-10-05T18:13:46.272Z,14.00
2022-10-05T18:20:32.292Z,4.97
2022-10-05T18:23:39.378Z,5.15
2022-10-05T18:27:00.547Z,5.72
2022-10-05T18:30:15.422Z,5.07
2022-10-05T18:33:43.440Z,3.67
2022-10-05T18:37:16.342Z,5.78
2022-10-05T18:40:47.873Z,3.33
2022-10-05T18:44:12.999Z,3.60
2022-10-05T18:47:40.995Z,4.75
2022-10-05T18:51:06.506Z,5.05
2022-10-05T18:54:34.811Z,4.40
2022-10-05T18:57:54.286Z,4.97
2022-10-05T19:01:30.603Z,6.63
2022-10-05T19:04:53.316Z,10.40
2022-10-05T19:08:30.181Z,12.68
2022-10-05T19:11:41.710Z,5.38
2022-10-05T19:14:48.902Z,5.38
2022-10-05T19:18:11.640Z,4.47
2022-10-05T19:21:51.103Z,7.60
2022-10-05T19:24:58.666Z,5.15
2022-10-05T19:28:09.053Z,5.75
2022-10-05T19:31:13.508Z,6.00
2022-10-05T19:34:39.008Z,5.15
2022-10-05T19:38:16.177Z,3.38
2022-10-05T19:41:28.519Z,6.90
2022-10-05T19:44:53.122Z,6.82
2022-10-05T19:48:41.313Z,16.38
2022-10-05T19:51:52.882Z,9.48
2022-10-05T19:55:09.008Z,9.93
2022-10-05T19:58:21.090Z,11.00
2022-10-05T20:01:41.587Z,6.95
2022-10-05T20:04:55.674Z,8.38
2022-10-05T20:07:59.955Z,10.50
2022-10-05T20:11:28.540Z,13.13
2022-10-05T20:14:59.097Z,4.93
2022-10-05T20:18:58.045Z,5.15
2022-10-05T20:22:30.525Z,10.57
2022-10-05T20:25:38.717Z,5.07
2022-10-05T20:28:43.936Z,10.63
2022-10-05T20:31:48.654Z,7.68
2022-10-05T20:34:56.461Z,5.32
2022-10-05T20:38:00.973Z,4.85
2022-10-05T20:41:05.595Z,5.80
2022-10-05T20:44:11.376Z,5.07
2022-10-05T20:50:22.977Z,13.77
2022-10-05T20:53:27.464Z,8.25
2022-10-05T20:56:32.004Z,14.45
2022-10-05T20:59:37.984Z,9.80
2022-10-05T21:02:42.476Z,16.55
2022-10-05T21:05:48.049Z,12.15
2022-10-05T21:08:52.283Z,14.45
2022-10-05T21:11:56.995Z,34.35
2022-10-05T21:15:02.288Z,29.90
2022-10-05T21:18:07.735Z,33.92
2022-10-05T21:21:12.425Z,32.70
2022-10-05T21:24:16.897Z,39.00
2022-10-05T21:27:21.124Z,54.78
2022-10-05T21:30:25.647Z,39.80
2022-10-05T21:33:30.697Z,68.60
2022-10-05T21:36:36.340Z,55.83
2022-10-05T21:39:40.772Z,31.27
2022-10-05T21:42:45.489Z,18.13
2022-10-05T21:45:49.841Z,39.40
2022-10-05T21:48:55.999Z,21.83
2022-10-05T21:52:02.091Z,36.10
2022-10-05T21:55:07.374Z,19.63
2022-10-05T21:58:13.323Z,29.88
2022-10-05T22:01:22.685Z,13.18
2022-10-05T22:04:27.688Z,18.35
2022-10-05T22:07:32.488Z,14.27
2022-10-05T22:10:37.148Z,30.70
2022-10-05T22:13:46.924Z,34.25
2022-10-05T22:16:51.644Z,26.90
2022-10-05T22:19:57.061Z,34.85
2022-10-05T22:23:01.627Z,25.02
2022-10-05T22:26:07.674Z,23.67
2022-10-05T22:29:12.471Z,10.63
2022-10-05T22:32:17.477Z,3.80
2022-10-05T22:35:22.118Z,78.73
2022-10-05T22:38:27.192Z,85.35
2022-10-05T22:41:31.917Z,45.38
2022-10-05T22:44:36.984Z,29.58
2022-10-05T22:47:43.134Z,19.38
2022-10-05T22:50:48.255Z,11.60
2022-10-05T22:53:52.939Z,11.85
2022-10-05T22:56:57.290Z,13.95
2022-10-05T23:00:01.539Z,20.63
2022-10-05T23:03:07.460Z,8.77
2022-10-05T23:06:21.813Z,5.35
2022-10-05T23:09:26.453Z,5.18
2022-10-05T23:12:30.871Z,4.18
2022-10-05T23:15:35.375Z,5.55
2022-10-05T23:18:39.952Z,18.88
2022-10-05T23:21:44.409Z,12.38
2022-10-05T23:24:49.206Z,3.65
2022-10-05T23:27:53.596Z,9.68
2022-10-05T23:31:02.274Z,13.20
2022-10-05T23:34:06.564Z,8.82
2022-10-05T23:37:11.180Z,4.85
2022-10-05T23:40:15.948Z,3.13
2022-10-05T23:43:20.322Z,4.73
2022-10-05T23:46:25.366Z,4.80
2022-10-05T23:49:30.015Z,3.90
2022-10-05T23:52:38.119Z,2.75
2022-10-05T23:55:42.884Z,3.75
2022-10-05T23:58:47.310Z,12.47
